Time;durP1;ratioP1;P1;durP2;ratioP2;P2;SDS_P1;SDS_P2;PMS_P1;PMS_P2;Temp;Humidity;BMP_temperature;BMP_pressure;BME280_temperature;BME280_humidity;BME280_pressure;Samples;Min_cycle;Max_cycle;Signal;HPM_P1;HPM_P2
2021/12/16 00:01:49;;;;;;;;;;;;;;;;;;110467;1279;9691;-77
2021/12/16 00:07:15;;;;;;;;;;;;;;;;;;110440;1278;8376;-76
2021/12/16 00:10:37;;;;;;;;;;;;;;;;;;110384;1278;8003;-77
2021/12/16 00:32:37;;;;;;;;;;;;;;;;;;110140;1279;9711;-79
2021/12/16 00:35:07;;;;;;;;;;;;;;;;;;110464;1278;8277;-78
2021/12/16 00:37:35;;;;;;;;;;;;;;;;;;110147;1279;9113;-77
2021/12/16 00:40:06;;;;;;;;;;;;;;;;;;110163;1279;9713;-77
2021/12/16 00:48:09;;;;;;;;;;;;;;;;;;110475;1278;9703;-77
2021/12/16 00:56:09;;;;;;;;;;;;;;;;;;110159;1279;9701;-78
2021/12/16 00:58:46;;;;;;;;;;;;;;;;;;110490;1278;8784;-77
2021/12/16 01:01:43;;;;;;;;;;;;;;;;;;110495;1278;8371;-77
2021/12/16 01:33:41;;;;;;;;;;;;;;;;;;110475;1278;8373;-77
2021/12/16 01:35:19;;;;;;;;;;;;;;;;;;110218;1278;8760;-77
2021/12/16 01:38:17;;;;;;;;;;;;;;;;;;110159;1278;9707;-77
2021/12/16 01:41:09;;;;;;;;;;;;;;;;;;110145;1279;8040;-77
2021/12/16 01:49:34;;;;;;;;;;;;;;;;;;110371;1278;8021;-77
2021/12/16 01:55:23;;;;;;;;;;;;;;;;;;110428;1278;8941;-77
2021/12/16 01:57:51;;;;;;;;;;;;;;;;;;110273;1278;9326;-77
2021/12/16 02:00:44;;;;;;;;;;;;;;;;;;110308;1276;9795;-76
2021/12/16 02:03:15;;;;;;;;;;;;;;;;;;110230;1279;8944;-78
2021/12/16 02:05:58;;;;;;;;;;;;;;;;;;110414;1279;8788;-77
2021/12/16 02:08:33;;;;;;;;;;;;;;;;;;110487;1278;9051;-77
2021/12/16 02:11:25;;;;;;;;;;;;;;;;;;110382;1279;8839;-77
2021/12/16 02:33:36;;;;;;;;;;;;;;;;;;110348;1277;9696;-77
2021/12/16 02:38:52;;;;;;;;;;;;;;;;;;110119;1279;8690;-77
2021/12/16 02:41:21;;;;;;;;;;;;;;;;;;110316;1281;9703;-77
2021/12/16 02:49:12;;;;;;;;;;;;;;;;;;110237;1278;8024;-77
2021/12/16 02:51:41;;;;;;;;;;;;;;;;;;110347;1276;8787;-78
2021/12/16 02:54:09;;;;;;;;;;;;;;;;;;110499;1279;9721;-77
2021/12/16 02:56:37;;;;;;;;;;;;;;;;;;110236;1278;8380;-78
2021/12/16 02:59:05;;;;;;;;;;;;;;;;;;110271;1279;8928;-78
2021/12/16 03:01:40;;;;;;;;;;;;;;;;;;110282;1278;8098;-77
2021/12/16 03:04:10;;;;;;;;;;;;;;;;;;110294;1279;9704;-77
2021/12/16 03:06:41;;;;;;;;;;;;;;;;;;110239;1279;9680;-77
2021/12/16 03:09:10;;;;;;;;;;;;;;;;;;110263;1278;8750;-77
2021/12/16 03:14:36;;;;;;;;;;;;;;;;;;110680;1277;8955;-78
2021/12/16 03:17:17;;;;;;;;;;;;;;;;;;110778;1277;8774;-77
2021/12/16 03:20:05;;;;;;;;;;;;;;;;;;110805;1277;8796;-77
2021/12/16 03:23:00;;;;;;;;;;;;;;;;;;110427;1278;9708;-77
2021/12/16 03:37:14;;;;;;;;;;;;;;;;;;110288;1277;9687;-78
2021/12/16 03:39:45;;;;;;;;;;;;;;;;;;110812;1277;7975;-77
2021/12/16 03:42:15;;;;;;;;;;;;;;;;;;110778;1275;8938;-77
2021/12/16 03:44:58;;;;;;;;;;;;;;;;;;110464;1277;9701;-77
2021/12/16 03:47:33;;;;;;;;;;;;;;;;;;110499;1277;8928;-77
2021/12/16 03:50:05;;;;;;;;;;;;;;;;;;110794;1277;9690;-78
2021/12/16 03:52:33;;;;;;;;;;;;;;;;;;110579;1277;9690;-77
2021/12/16 03:55:03;;;;;;;;;;;;;;;;;;110292;1277;8773;-77
2021/12/16 03:57:32;;;;;;;;;;;;;;;;;;110448;1277;7949;-78
2021/12/16 04:00:01;;;;;;;;;;;;;;;;;;110501;1279;9800;-78
2021/12/16 04:02:47;;;;;;;;;;;;;;;;;;110663;1277;9708;-77
2021/12/16 04:05:21;;;;;;;;;;;;;;;;;;110216;1278;9712;-77
2021/12/16 04:07:49;;;;;;;;;;;;;;;;;;110457;1277;8743;-77
2021/12/16 04:10:33;;;;;;;;;;;;;;;;;;110800;1274;8050;-77
2021/12/16 04:13:06;;;;;;;;;;;;;;;;;;110823;1277;9716;-77
2021/12/16 04:15:37;;;;;;;;;;;;;;;;;;110779;1276;8849;-77
2021/12/16 04:18:06;;;;;;;;;;;;;;;;;;110460;1277;8876;-77
2021/12/16 04:20:52;;;;;;;;;;;;;;;;;;110578;1276;9703;-77
2021/12/16 04:23:20;;;;;;;;;;;;;;;;;;110821;1275;7957;-78
2021/12/16 04:25:48;;;;;;;;;;;;;;;;;;110823;1275;8933;-77
2021/12/16 04:28:23;;;;;;;;;;;;;;;;;;110808;1275;9702;-77
2021/12/16 04:30:53;;;;;;;;;;;;;;;;;;110443;1277;8773;-77
2021/12/16 04:33:21;;;;;;;;;;;;;;;;;;110444;1276;8381;-78
2021/12/16 04:35:50;;;;;;;;;;;;;;;;;;110410;1277;9690;-77
2021/12/16 04:38:18;;;;;;;;;;;;;;;;;;110768;1277;9718;-77
2021/12/16 04:40:49;;;;;;;;;;;;;;;;;;110473;1275;391553;-77
2021/12/16 04:43:22;;;;;;;;;;;;;;;;;;110433;1277;8940;-77
2021/12/16 04:46:06;;;;;;;;;;;;;;;;;;110425;1277;9697;-77
2021/12/16 04:48:34;;;;;;;;;;;;;;;;;;110228;1279;9798;-78
2021/12/16 04:51:04;;;;;;;;;;;;;;;;;;110800;1276;7979;-77
2021/12/16 04:53:32;;;;;;;;;;;;;;;;;;110212;1278;8939;-78
2021/12/16 04:56:01;;;;;;;;;;;;;;;;;;110233;1277;9713;-78
2021/12/16 04:58:37;;;;;;;;;;;;;;;;;;110289;1277;9702;-77
2021/12/16 05:01:05;;;;;;;;;;;;;;;;;;110291;1279;9112;-78
2021/12/16 05:03:42;;;;;;;;;;;;;;;;;;110805;1277;7983;-82
2021/12/16 05:06:12;;;;;;;;;;;;;;;;;;110253;1276;8100;-78
2021/12/16 05:08:42;;;;;;;;;;;;;;;;;;110323;1277;9728;-78
2021/12/16 05:11:21;;;;;;;;;;;;;;;;;;110316;1277;8990;-80
2021/12/16 05:13:50;;;;;;;;;;;;;;;;;;110433;1276;9833;-78
2021/12/16 05:16:21;;;;;;;;;;;;;;;;;;110503;1277;7983;-77
2021/12/16 05:18:52;;;;;;;;;;;;;;;;;;110447;1277;8387;-78
2021/12/16 05:21:42;;;;;;;;;;;;;;;;;;110473;1277;8966;-79
2021/12/16 05:24:27;;;;;;;;;;;;;;;;;;110460;1279;9017;-79
2021/12/16 05:27:02;;;;;;;;;;;;;;;;;;110791;1276;7974;-78
2021/12/16 05:29:30;;;;;;;;;;;;;;;;;;110515;1279;9043;-77
2021/12/16 05:32:01;;;;;;;;;;;;;;;;;;110269;1277;9745;-78
2021/12/16 05:34:29;;;;;;;;;;;;;;;;;;110572;1277;8371;-78
2021/12/16 05:36:58;;;;;;;;;;;;;;;;;;110217;1279;8835;-79
2021/12/16 05:39:26;;;;;;;;;;;;;;;;;;110416;1277;9710;-78
2021/12/16 05:42:26;;;;;;;;;;;;;;;;;;110355;1277;9259;-78
2021/12/16 05:44:55;;;;;;;;;;;;;;;;;;110231;1279;8926;-80
2021/12/16 05:47:24;;;;;;;;;;;;;;;;;;110579;1277;9731;-78
2021/12/16 05:49:52;;;;;;;;;;;;;;;;;;110499;1277;8106;-79
2021/12/16 05:52:21;;;;;;;;;;;;;;;;;;110443;1277;9690;-78
2021/12/16 05:54:49;;;;;;;;;;;;;;;;;;110307;1278;8027;-78
2021/12/16 05:57:42;;;;;;;;;;;;;;;;;;110711;1277;8003;-80
2021/12/16 06:00:15;;;;;;;;;;;;;;;;;;110581;1277;8116;-77
2021/12/16 06:02:44;;;;;;;;;;;;;;;;;;110474;1278;8180;-80
2021/12/16 06:05:12;;;;;;;;;;;;;;;;;;110243;1276;8792;-77
2021/12/16 06:07:41;;;;;;;;;;;;;;;;;;110229;1276;9696;-77
2021/12/16 06:10:31;;;;;;;;;;;;;;;;;;110452;1277;7989;-78
2021/12/16 06:13:00;;;;;;;;;;;;;;;;;;110750;1277;9704;-76
2021/12/16 06:26:34;;;;;;;;;;;;;;;;;;110508;1277;8760;-76
2021/12/16 06:29:03;;;;;;;;;;;;;;;;;;110818;1277;9706;-76
2021/12/16 06:31:31;;;;;;;;;;;;;;;;;;110801;1277;8785;-75
2021/12/16 06:33:59;;;;;;;;;;;;;;;;;;110790;1273;9713;-75
2021/12/16 06:36:27;;;;;;;;;;;;;;;;;;110450;1274;7967;-74
2021/12/16 06:38:55;;;;;;;;;;;;;;;;;;110439;1276;8445;-77
2021/12/16 06:41:43;;;;;;;;;;;;;;;;;;110534;1277;9725;-74
2021/12/16 06:44:20;;;;;;;;;;;;;;;;;;110525;1274;8790;-75
2021/12/16 06:46:50;;;;;;;;;;;;;;;;;;110577;1277;9691;-77
2021/12/16 06:49:20;;;;;;;;;;;;;;;;;;110785;1276;9705;-78
2021/12/16 06:51:57;;;;;;;;;;;;;;;;;;110208;1277;7965;-77
2021/12/16 06:54:34;;;;;;;;;;;;;;;;;;110597;1277;8785;-78
2021/12/16 06:57:19;;;;;;;;;;;;;;;;;;110791;1276;8361;-78
2021/12/16 06:59:54;;;;;;;;;;;;;;;;;;110510;1277;8029;-75
2021/12/16 07:05:07;;;;;;;;;;;;;;;;;;110221;1278;9697;-77
2021/12/16 07:07:36;;;;;;;;;;;;;;;;;;110268;1277;8428;-77
2021/12/16 07:10:08;;;;;;;;;;;;;;;;;;110777;1276;8379;-79
2021/12/16 07:12:38;;;;;;;;;;;;;;;;;;110280;1279;9178;-78
2021/12/16 07:15:10;;;;;;;;;;;;;;;;;;110433;1279;8278;-79
2021/12/16 07:17:40;;;;;;;;;;;;;;;;;;110789;1275;9788;-79
2021/12/16 07:20:10;;;;;;;;;;;;;;;;;;110418;1277;7986;-78
2021/12/16 07:22:38;;;;;;;;;;;;;;;;;;110273;1277;7989;-77
2021/12/16 07:25:07;;;;;;;;;;;;;;;;;;110339;1276;9699;-79
2021/12/16 07:27:36;;;;;;;;;;;;;;;;;;110798;1276;9587;-77
2021/12/16 07:30:07;;;;;;;;;;;;;;;;;;110158;1279;8376;-75
2021/12/16 07:32:35;;;;;;;;;;;;;;;;;;110411;1278;9727;-76
2021/12/16 07:35:07;;;;;;;;;;;;;;;;;;110313;1277;7969;-77
2021/12/16 07:37:35;;;;;;;;;;;;;;;;;;110768;1276;9738;-76
2021/12/16 07:40:07;;;;;;;;;;;;;;;;;;110231;1279;7949;-76
2021/12/16 07:42:48;;;;;;;;;;;;;;;;;;110793;1274;9690;-77
2021/12/16 07:45:18;;;;;;;;;;;;;;;;;;110287;1277;8950;-77
2021/12/16 07:47:46;;;;;;;;;;;;;;;;;;110388;1277;9690;-81
2021/12/16 07:50:19;;;;;;;;;;;;;;;;;;110253;1275;9690;-79
2021/12/16 07:52:47;;;;;;;;;;;;;;;;;;110231;1277;7942;-78
2021/12/16 07:55:15;;;;;;;;;;;;;;;;;;110364;1279;9054;-77
2021/12/16 07:57:44;;;;;;;;;;;;;;;;;;110269;1279;9697;-78
2021/12/16 08:00:15;;;;;;;;;;;;;;;;;;110459;1276;8380;-77
2021/12/16 08:02:44;;;;;;;;;;;;;;;;;;110260;1277;8193;-76
2021/12/16 08:05:14;;;;;;;;;;;;;;;;;;110439;1277;8789;-77
2021/12/16 08:07:49;;;;;;;;;;;;;;;;;;110252;1276;8791;-77
2021/12/16 08:10:22;;;;;;;;;;;;;;;;;;110431;1277;8784;-76
2021/12/16 08:13:04;;;;;;;;;;;;;;;;;;;;;
2021/12/16 08:15:42;;;;;;;;;;;;;;;;;;110631;1276;9700;-77
2021/12/16 08:18:11;;;;;;;;;;;;;;;;;;110486;1277;9403;-76
2021/12/16 08:20:40;;;;;;;;;;;;;;;;;;110518;1277;9697;-77
2021/12/16 08:23:09;;;;;;;;;;;;;;;;;;110297;1277;8375;-77
2021/12/16 08:25:38;;;;;;;;;;;;;;;;;;110196;1277;9141;-80
2021/12/16 08:28:07;;;;;;;;;;;;;;;;;;110315;1279;8738;-76
2021/12/16 08:30:38;;;;;;;;;;;;;;;;;;110370;1279;8815;-77
2021/12/16 08:33:10;;;;;;;;;;;;;;;;;;110299;1279;8947;-77
2021/12/16 08:35:41;;;;;;;;;;;;;;;;;;110481;1277;8369;-78
2021/12/16 08:38:12;;;;;;;;;;;;;;;;;;110509;1279;8720;-77
2021/12/16 08:40:51;;;;;;;;;;;;;;;;;;110394;1276;9775;-77
2021/12/16 08:43:21;;;;;;;;;;;;;;;;;;110538;1276;9390;-77
2021/12/16 08:45:53;;;;;;;;;;;;;;;;;;110654;1274;7971;-80
2021/12/16 08:48:23;;;;;;;;;;;;;;;;;;110442;1277;8956;-77
2021/12/16 08:50:51;;;;;;;;;;;;;;;;;;110449;1277;9691;-77
2021/12/16 08:53:22;;;;;;;;;;;;;;;;;;110351;1279;8394;-76
2021/12/16 08:55:54;;;;;;;;;;;;;;;;;;110299;1277;9724;-76
2021/12/16 08:58:24;;;;;;;;;;;;;;;;;;110241;1277;8375;-76
2021/12/16 09:01:35;;;;;;;;;;;;;;;;;;110409;1278;8929;-77
2021/12/16 09:04:23;;;;;;;;;;;;;;;;;;110408;1277;9690;-76
2021/12/16 09:07:10;;;;;;;;;;;;;;;;;;110537;1276;8867;-77
2021/12/16 09:09:57;;;;;;;;;;;;;;;;;;110553;1276;8012;-76
2021/12/16 09:14:59;;;;;;;;;;;;;;;;;;110326;1279;9337;-76
2021/12/16 09:17:28;;;;;;;;;;;;;;;;;;110182;1279;9694;-77
2021/12/16 09:20:37;;;;;;;;;;;;;;;;;;;;;
2021/12/16 09:23:49;;;;;;;;;;;;;;;;;;110514;1277;9705;-78
2021/12/16 09:26:30;;;;;;;;;;;;;;;;;;110430;1277;9691;-77
2021/12/16 09:29:09;;;;;;;;;;;;;;;;;;110394;1277;9198;-80
2021/12/16 09:31:40;;;;;;;;;;;;;;;;;;110401;1277;8781;-81
2021/12/16 09:34:24;;;;;;;;;;;;;;;;;;110493;1277;9697;-77
2021/12/16 09:36:54;;;;;;;;;;;;;;;;;;110178;1279;8015;-77
2021/12/16 09:39:25;;;;;;;;;;;;;;;;;;110206;1279;9808;-77
2021/12/16 09:41:57;;;;;;;;;;;;;;;;;;110357;1278;8960;-76
2021/12/16 09:44:27;;;;;;;;;;;;;;;;;;110248;1279;8087;-76
2021/12/16 09:46:58;;;;;;;;;;;;;;;;;;110521;1277;9655;-78
2021/12/16 09:49:27;;;;;;;;;;;;;;;;;;110231;1277;9765;-77
2021/12/16 09:51:59;;;;;;;;;;;;;;;;;;110269;1276;7979;-77
2021/12/16 09:54:30;;;;;;;;;;;;;;;;;;110233;1277;8253;-77
2021/12/16 09:56:59;;;;;;;;;;;;;;;;;;110385;1277;8369;-76
2021/12/16 09:59:31;;;;;;;;;;;;;;;;;;110454;1278;9694;-77
2021/12/16 10:02:01;;;;;;;;;;;;;;;;;;110505;1279;9697;-76
2021/12/16 10:04:34;;;;;;;;;;;;;;;;;;110297;1275;9612;-77
2021/12/16 10:07:24;;;;;;;;;;;;;;;;;;110790;1275;8012;-77
2021/12/16 10:09:54;;;;;;;;;;;;;;;;;;110454;1277;8788;-77
2021/12/16 10:12:28;;;;;;;;;;;;;;;;;;110449;1277;9217;-77
2021/12/16 10:17:32;;;;;;;;;;;;;;;;;;110212;1279;9713;-77
2021/12/16 10:20:06;;;;;;;;;;;;;;;;;;110245;1279;8800;-79
2021/12/16 10:22:42;;;;;;;;;;;;;;;;;;110190;1279;8961;-78
2021/12/16 10:25:18;;;;;;;;;;;;;;;;;;110296;1278;9728;-76
2021/12/16 10:27:56;;;;;;;;;;;;;;;;;;110503;1279;8791;-76
2021/12/16 10:30:25;;;;;;;;;;;;;;;;;;110530;1276;8941;-78
2021/12/16 10:32:55;;;;;;;;;;;;;;;;;;110261;1277;8002;-77
2021/12/16 10:35:29;;;;;;;;;;;;;;;;;;110247;1277;9707;-76
2021/12/16 10:38:00;;;;;;;;;;;;;;;;;;110441;1277;8370;-78
2021/12/16 10:40:29;;;;;;;;;;;;;;;;;;110399;1277;8762;-80
2021/12/16 10:42:59;;;;;;;;;;;;;;;;;;110601;1276;8967;-79
2021/12/16 10:45:32;;;;;;;;;;;;;;;;;;110368;1278;9702;-77
2021/12/16 10:48:12;;;;;;;;;;;;;;;;;;110205;1277;9295;-76
2021/12/16 10:50:58;;;;;;;;;;;;;;;;;;110171;1279;9703;-78
2021/12/16 10:53:50;;;;;;;;;;;;;;;;;;110538;1276;9159;-76
2021/12/16 10:56:27;;;;;;;;;;;;;;;;;;110384;1279;9313;-78
2021/12/16 10:58:58;;;;;;;;;;;;;;;;;;110304;1281;8830;-80
2021/12/16 11:01:42;;;;;;;;;;;;;;;;;;110420;1279;8332;-77
2021/12/16 11:04:16;;;;;;;;;;;;;;;;;;110239;1276;9696;-77
2021/12/16 11:07:05;;;;;;;;;;;;;;;;;;;;;
2021/12/16 11:10:44;;;;;;;;;;;;;;;;;;;;;
2021/12/16 11:14:12;;;;;;;;;;;;;;;;;;110450;1276;8395;-81
2021/12/16 11:20:58;;;;;;;;;;;;;;;;;;109987;1278;9715;-81
2021/12/16 11:23:44;;;;;;;;;;;;;;;;;;;;;
2021/12/16 11:26:38;;;;;;;;;;;;;;;;;;110441;1277;9770;-80
2021/12/16 11:29:18;;;;;;;;;;;;;;;;;;110435;1279;9661;-78
2021/12/16 11:31:57;;;;;;;;;;;;;;;;;;110393;1279;9705;-77
2021/12/16 11:34:27;;;;;;;;;;;;;;;;;;110523;1277;9690;-76
2021/12/16 11:36:57;;;;;;;;;;;;;;;;;;110305;1279;8787;-77
2021/12/16 11:39:29;;;;;;;;;;;;;;;;;;110346;1279;8032;-77
2021/12/16 11:42:03;;;;;;;;;;;;;;;;;;110214;1277;9697;-78
2021/12/16 11:44:39;;;;;;;;;;;;;;;;;;110376;1277;9440;-78
2021/12/16 11:47:09;;;;;;;;;;;;;;;;;;110298;1277;8321;-77
2021/12/16 11:49:46;;;;;;;;;;;;;;;;;;110392;1277;9685;-77
2021/12/16 11:52:18;;;;;;;;;;;;;;;;;;110244;1277;8886;-75
2021/12/16 11:54:56;;;;;;;;;;;;;;;;;;110455;1276;7998;-76
2021/12/16 11:57:24;;;;;;;;;;;;;;;;;;110338;1279;8076;-79
2021/12/16 12:00:08;;;;;;;;;;;;;;;;;;110280;1277;9182;-78
2021/12/16 12:03:00;;;;;;;;;;;;;;;;;;110556;1274;7980;-77
2021/12/16 12:05:36;;;;;;;;;;;;;;;;;;110187;1277;8858;-78
2021/12/16 12:08:09;;;;;;;;;;;;;;;;;;110400;1278;8948;-77
2021/12/16 12:10:47;;;;;;;;;;;;;;;;;;110415;1279;8183;-76
2021/12/16 12:13:16;;;;;;;;;;;;;;;;;;110416;1278;9697;-77
2021/12/16 12:16:02;;;;;;;;;;;;;;;;;;110486;1277;9790;-78
2021/12/16 12:18:34;;;;;;;;;;;;;;;;;;110428;1274;8023;-77
2021/12/16 12:21:20;;;;;;;;;;;;;;;;;;110183;1276;8929;-77
2021/12/16 12:23:52;;;;;;;;;;;;;;;;;;110218;1275;9667;-77
2021/12/16 12:26:23;;;;;;;;;;;;;;;;;;110153;1276;8820;-77
2021/12/16 12:29:04;;;;;;;;;;;;;;;;;;110205;1274;9709;-77
2021/12/16 12:31:35;;;;;;;;;;;;;;;;;;110245;1274;8101;-77
2021/12/16 12:34:03;;;;;;;;;;;;;;;;;;110257;1275;8534;-78
2021/12/16 12:36:35;;;;;;;;;;;;;;;;;;110356;1273;8802;-79
2021/12/16 12:39:07;;;;;;;;;;;;;;;;;;110316;1275;9423;-79
2021/12/16 12:41:35;;;;;;;;;;;;;;;;;;108307;1274;2807622;-76
2021/12/16 12:44:05;;;;;;;;;;;;;;;;;;110273;1276;8007;-77
2021/12/16 12:46:38;;;;;;;;;;;;;;;;;;110320;1276;9185;-76
2021/12/16 12:49:14;;;;;;;;;;;;;;;;;;110341;1274;8796;-77
2021/12/16 12:51:45;;;;;;;;;;;;;;;;;;110181;1274;9189;-77
2021/12/16 12:54:33;;;;;;;;;;;;;;;;;;110477;1276;9686;-77
2021/12/16 12:57:20;;;;;;;;;;;;;;;;;;110197;1276;8566;-78
2021/12/16 12:59:50;;;;;;;;;;;;;;;;;;110463;1273;8396;-77
2021/12/16 13:02:23;;;;;;;;;;;;;;;;;;110476;1273;9694;-78
2021/12/16 13:04:54;;;;;;;;;;;;;;;;;;110325;1273;7985;-76
2021/12/16 13:07:31;;;;;;;;;;;;;;;;;;110413;1274;8800;-78
2021/12/16 13:10:06;;;;;;;;;;;;;;;;;;110218;1275;8095;-78
2021/12/16 13:12:46;;;;;;;;;;;;;;;;;;110418;1276;8000;-77
2021/12/16 13:15:34;;;;;;;;;;;;;;;;;;110339;1273;8013;-77
2021/12/16 13:23:49;;;;;;;;;;;;;;;;;;110375;1274;9021;-75
2021/12/16 13:29:03;;;;;;;;;;;;;;;;;;110232;1274;9486;-77
2021/12/16 13:32:19;;;;;;;;;;;;;;;;;;110178;1276;9713;-76
2021/12/16 13:35:21;;;;;;;;;;;;;;;;;;110286;1276;9721;-76
2021/12/16 13:37:51;;;;;;;;;;;;;;;;;;110158;1275;8395;-76
2021/12/16 13:40:20;;;;;;;;;;;;;;;;;;110301;1274;8796;-77
2021/12/16 13:42:58;;;;;;;;;;;;;;;;;;110446;1273;9694;-76
2021/12/16 13:45:35;;;;;;;;;;;;;;;;;;110422;1276;9060;-74
2021/12/16 14:02:15;;;;;;;;;;;;;;;;;;110180;1274;8022;-80
2021/12/16 14:05:03;;;;;;;;;;;;;;;;;;110265;1275;9707;-79
2021/12/16 14:07:59;;;;;;;;;;;;;;;;;;110247;1276;8942;-81
2021/12/16 14:17:52;;;;;;;;;;;;;;;;;;110255;1273;9744;-76
2021/12/16 14:23:35;;;;;;;;;;;;;;;;;;110482;1276;8778;-75
2021/12/16 14:26:33;;;;;;;;;;;;;;;;;;110210;1274;9469;-76
2021/12/16 14:37:21;;;;;;;;;;;;;;;;;;110210;1276;8813;-75
2021/12/16 14:40:13;;;;;;;;;;;;;;;;;;110362;1276;8021;-75
2021/12/16 14:42:59;;;;;;;;;;;;;;;;;;110473;1275;8363;-75
2021/12/16 14:50:41;;;;;;;;;;;;;;;;;;110263;1275;9711;-76
2021/12/16 14:53:13;;;;;;;;;;;;;;;;;;110305;1275;8941;-74
2021/12/16 14:58:48;;;;;;;;;;;;;;;;;;110151;1280;8950;-75
2021/12/16 15:01:22;;;;;;;;;;;;;;;;;;109795;1281;8917;-75
2021/12/16 15:03:51;;;;;;;;;;;;;;;;;;110014;1282;10115;-75
2021/12/16 15:06:26;;;;;;;;;;;;;;;;;;110065;1280;9370;-77
2021/12/16 15:12:25;;;;;;;;;;;;;;;;;;110372;1273;8031;-75
2021/12/16 15:45:00;;;;;;;;;;;;;;;;;;110409;1273;8356;-77
2021/12/16 15:47:37;;;;;;;;;;;;;;;;;;110370;1275;8924;-77
2021/12/16 15:50:08;;;;;;;;;;;;;;;;;;110211;1276;9699;-76
2021/12/16 15:53:04;;;;;;;;;;;;;;;;;;110240;1274;8014;-76
2021/12/16 15:55:34;;;;;;;;;;;;;;;;;;110286;1275;8902;-77
2021/12/16 15:58:07;;;;;;;;;;;;;;;;;;110506;1274;9681;-76
2021/12/16 16:00:38;;;;;;;;;;;;;;;;;;110229;1274;8026;-77
2021/12/16 16:03:08;;;;;;;;;;;;;;;;;;110188;1275;9700;-75
2021/12/16 16:05:44;;;;;;;;;;;;;;;;;;110223;1273;9742;-76
2021/12/16 16:08:25;;;;;;;;;;;;;;;;;;110444;1274;8248;-77
2021/12/16 16:10:59;;;;;;;;;;;;;;;;;;110270;1276;10000;-78
2021/12/16 16:13:38;;;;;;;;;;;;;;;;;;110339;1276;8506;-82
2021/12/16 16:16:16;;;;;;;;;;;;;;;;;;;;;
2021/12/16 16:18:59;;;;;;;;;;;;;;;;;;110290;1276;9011;-76
2021/12/16 16:21:31;;;;;;;;;;;;;;;;;;110402;1274;9246;-77
2021/12/16 16:24:06;;;;;;;;;;;;;;;;;;110393;1276;9139;-76
2021/12/16 16:26:40;;;;;;;;;;;;;;;;;;110287;1276;9716;-76
2021/12/16 16:29:14;;;;;;;;;;;;;;;;;;110415;1274;9239;-75
2021/12/16 16:31:50;;;;;;;;;;;;;;;;;;110374;1274;9709;-78
2021/12/16 16:34:29;;;;;;;;;;;;;;;;;;110313;1274;8309;-76
2021/12/16 16:37:28;;;;;;;;;;;;;;;;;;110311;1275;8787;-76
2021/12/16 16:40:07;;;;;;;;;;;;;;;;;;110342;1274;9701;-75
2021/12/16 16:42:42;;;;;;;;;;;;;;;;;;110316;1274;9197;-77
2021/12/16 16:45:19;;;;;;;;;;;;;;;;;;110264;1276;8194;-76
2021/12/16 16:47:54;;;;;;;;;;;;;;;;;;110362;1276;9708;-77
2021/12/16 16:50:26;;;;;;;;;;;;;;;;;;110430;1274;8300;-77
2021/12/16 16:52:57;;;;;;;;;;;;;;;;;;110405;1277;9724;-77
2021/12/16 16:55:31;;;;;;;;;;;;;;;;;;110409;1274;8806;-80
2021/12/16 16:58:14;;;;;;;;;;;;;;;;;;110344;1274;8223;-77
2021/12/16 17:00:50;;;;;;;;;;;;;;;;;;110288;1276;8484;-78
2021/12/16 17:03:27;;;;;;;;;;;;;;;;;;110397;1276;9184;-77
2021/12/16 17:06:03;;;;;;;;;;;;;;;;;;110387;1276;8038;-77
2021/12/16 17:11:46;;;;;;;;;;;;;;;;;;110364;1276;8837;-77
2021/12/16 17:14:36;;;;;;;;;;;;;;;;;;110225;1275;9703;-78
2021/12/16 17:17:30;;;;;;;;;;;;;;;;;;;;;
2021/12/16 17:20:24;;;;;;;;;;;;;;;;;;110242;1274;9698;-79
2021/12/16 17:23:00;;;;;;;;;;;;;;;;;;110276;1274;8010;-78
2021/12/16 17:25:33;;;;;;;;;;;;;;;;;;110222;1274;10010;-77
2021/12/16 17:28:03;;;;;;;;;;;;;;;;;;110419;1275;8611;-76
2021/12/16 17:30:34;;;;;;;;;;;;;;;;;;110418;1274;9046;-76
2021/12/16 17:33:04;;;;;;;;;;;;;;;;;;110307;1275;8012;-78
2021/12/16 17:35:36;;;;;;;;;;;;;;;;;;110317;1274;8902;-78
2021/12/16 17:38:10;;;;;;;;;;;;;;;;;;110410;1276;9364;-78
2021/12/16 17:40:44;;;;;;;;;;;;;;;;;;110291;1276;8024;-77
2021/12/16 17:43:17;;;;;;;;;;;;;;;;;;110283;1277;9706;-78
2021/12/16 17:45:55;;;;;;;;;;;;;;;;;;110314;1276;8083;-74
2021/12/16 17:48:29;;;;;;;;;;;;;;;;;;110311;1277;8018;-76
2021/12/16 17:51:00;;;;;;;;;;;;;;;;;;110358;1276;8006;-74
2021/12/16 17:53:33;;;;;;;;;;;;;;;;;;110479;1274;8082;-78
2021/12/16 17:56:09;;;;;;;;;;;;;;;;;;110269;1276;8018;-75
2021/12/16 17:58:42;;;;;;;;;;;;;;;;;;110260;1277;8800;-75
2021/12/16 18:01:18;;;;;;;;;;;;;;;;;;110277;1276;9694;-75
2021/12/16 18:03:47;;;;;;;;;;;;;;;;;;110260;1277;9278;-75
2021/12/16 18:06:18;;;;;;;;;;;;;;;;;;110447;1274;8013;-75
2021/12/16 18:08:49;;;;;;;;;;;;;;;;;;110336;1276;8312;-75
2021/12/16 18:11:26;;;;;;;;;;;;;;;;;;110469;1276;9796;-76
2021/12/16 18:14:20;;;;;;;;;;;;;;;;;;110323;1274;8847;-76
2021/12/16 18:16:55;;;;;;;;;;;;;;;;;;110307;1276;9105;-75
2021/12/16 18:19:39;;;;;;;;;;;;;;;;;;110357;1274;8769;-77
2021/12/16 18:22:12;;;;;;;;;;;;;;;;;;110140;1276;8097;-74
2021/12/16 18:24:42;;;;;;;;;;;;;;;;;;110338;1275;8788;-74
2021/12/16 18:27:17;;;;;;;;;;;;;;;;;;110380;1274;8405;-75
2021/12/16 18:29:46;;;;;;;;;;;;;;;;;;110405;1274;8994;-76
2021/12/16 18:32:14;;;;;;;;;;;;;;;;;;110274;1278;7990;-75
2021/12/16 18:34:50;;;;;;;;;;;;;;;;;;110190;1276;9700;-76
2021/12/16 18:37:24;;;;;;;;;;;;;;;;;;110394;1274;8382;-76
2021/12/16 18:39:54;;;;;;;;;;;;;;;;;;110254;1275;8619;-78
2021/12/16 18:42:29;;;;;;;;;;;;;;;;;;110269;1276;9002;-78
2021/12/16 18:45:06;;;;;;;;;;;;;;;;;;110231;1276;8999;-76
2021/12/16 18:47:40;;;;;;;;;;;;;;;;;;110192;1274;8778;-76
2021/12/16 18:50:43;;;;;;;;;;;;;;;;;;110200;1274;9697;-76
2021/12/16 18:55:57;;;;;;;;;;;;;;;;;;110286;1276;8378;-78
2021/12/16 18:58:28;;;;;;;;;;;;;;;;;;110233;1273;9276;-77
2021/12/16 19:01:17;;;;;;;;;;;;;;;;;;110207;1274;9713;-78
2021/12/16 19:03:47;;;;;;;;;;;;;;;;;;110167;1275;9248;-77
2021/12/16 19:06:27;;;;;;;;;;;;;;;;;;110353;1276;8788;-77
2021/12/16 19:09:00;;;;;;;;;;;;;;;;;;110282;1276;8759;-75
2021/12/16 19:11:33;;;;;;;;;;;;;;;;;;110344;1274;8377;-76
2021/12/16 19:14:08;;;;;;;;;;;;;;;;;;110280;1274;9783;-77
2021/12/16 19:16:54;;;;;;;;;;;;;;;;;;110301;1276;9150;-77
2021/12/16 19:19:35;;;;;;;;;;;;;;;;;;;;;
2021/12/16 19:22:15;;;;;;;;;;;;;;;;;;110296;1274;9704;-76
2021/12/16 19:25:08;;;;;;;;;;;;;;;;;;110191;1276;9799;-77
2021/12/16 19:27:46;;;;;;;;;;;;;;;;;;110276;1277;9715;-77
2021/12/16 19:30:29;;;;;;;;;;;;;;;;;;110435;1274;9409;-78
2021/12/16 19:33:16;;;;;;;;;;;;;;;;;;110363;1276;8776;-78
2021/12/16 19:36:01;;;;;;;;;;;;;;;;;;110297;1274;8204;-78
2021/12/16 19:38:41;;;;;;;;;;;;;;;;;;110426;1277;8312;-77
2021/12/16 19:41:26;;;;;;;;;;;;;;;;;;110427;1277;8718;-77
2021/12/16 19:44:41;;;;;;;;;;;;;;;;;;;;;
2021/12/16 19:47:16;;;;;;;;;;;;;;;;;;110179;1278;9713;-76
2021/12/16 19:50:24;;;;;;;;;;;;;;;;;;110291;1279;9709;-77
2021/12/16 19:53:35;;;;;;;;;;;;;;;;;;110088;1279;9706;-79
2021/12/16 20:00:07;;;;;;;;;;;;;;;;;;;;;
2021/12/16 20:07:46;;;;;;;;;;;;;;;;;;109990;1284;8073;-79
2021/12/16 20:11:14;;;;;;;;;;;;;;;;;;;;;
2021/12/16 20:18:44;;;;;;;;;;;;;;;;;;;;;
2021/12/16 20:21:59;;;;;;;;;;;;;;;;;;109991;1278;9706;-78
2021/12/16 20:24:55;;;;;;;;;;;;;;;;;;110332;1278;9712;-78
2021/12/16 20:28:30;;;;;;;;;;;;;;;;;;109186;1304;8961;-78
2021/12/16 20:35:50;;;;;;;;;;;;;;;;;;110998;1272;8787;-76
2021/12/16 20:38:37;;;;;;;;;;;;;;;;;;111512;1271;8930;-76
2021/12/16 20:41:44;;;;;;;;;;;;;;;;;;106901;1270;5579677;-78
2021/12/16 20:45:53;;;;;;;;;;;;;;;;;;111678;1272;8184;-80
2021/12/16 20:48:32;;;;;;;;;;;;;;;;;;111358;1274;9682;-79
2021/12/16 20:51:18;;;;;;;;;;;;;;;;;;111142;1274;8932;-78
2021/12/16 20:54:13;;;;;;;;;;;;;;;;;;111953;1267;8910;-82
2021/12/16 20:56:55;;;;;;;;;;;;;;;;;;112184;1266;9674;-78
2021/12/16 21:00:01;;;;;;;;;;;;;;;;;;;;;
2021/12/16 21:03:46;;;;;;;;;;;;;;;;;;112340;1264;9072;-79
2021/12/16 21:06:43;;;;;;;;;;;;;;;;;;112128;1267;8937;-77
2021/12/16 21:09:41;;;;;;;;;;;;;;;;;;112153;1266;8901;-78
2021/12/16 21:13:04;;;;;;;;;;;;;;;;;;111985;1267;8175;-76
2021/12/16 21:16:09;;;;;;;;;;;;;;;;;;112228;1264;9672;-76
2021/12/16 21:18:53;;;;;;;;;;;;;;;;;;112183;1265;8736;-77
2021/12/16 21:22:20;;;;;;;;;;;;;;;;;;112206;1264;9767;-77
2021/12/16 21:25:30;;;;;;;;;;;;;;;;;;;;;
2021/12/16 21:28:54;;;;;;;;;;;;;;;;;;112133;1265;9212;-78
2021/12/16 21:31:40;;;;;;;;;;;;;;;;;;112200;1265;9806;-79
2021/12/16 21:34:17;;;;;;;;;;;;;;;;;;112357;1261;8978;-76
2021/12/16 21:36:47;;;;;;;;;;;;;;;;;;112378;1264;9697;-76
2021/12/16 21:39:17;;;;;;;;;;;;;;;;;;112292;1263;8129;-75
2021/12/16 21:41:46;;;;;;;;;;;;;;;;;;112343;1264;8465;-76
2021/12/16 21:44:14;;;;;;;;;;;;;;;;;;112363;1264;9674;-78
2021/12/16 21:46:43;;;;;;;;;;;;;;;;;;112366;1263;7939;-76
2021/12/16 21:49:11;;;;;;;;;;;;;;;;;;112350;1264;8958;-76
2021/12/16 21:51:39;;;;;;;;;;;;;;;;;;112396;1264;10137;-76
2021/12/16 21:54:08;;;;;;;;;;;;;;;;;;112148;1264;7995;-76
2021/12/16 21:56:36;;;;;;;;;;;;;;;;;;112319;1264;8767;-75
2021/12/16 21:59:05;;;;;;;;;;;;;;;;;;112366;1263;9827;-75
2021/12/16 22:01:35;;;;;;;;;;;;;;;;;;112309;1264;8935;-75
2021/12/16 22:04:03;;;;;;;;;;;;;;;;;;112330;1264;7985;-75
2021/12/16 22:06:32;;;;;;;;;;;;;;;;;;112217;1263;8780;-76
2021/12/16 22:09:00;;;;;;;;;;;;;;;;;;112154;1264;9737;-76
2021/12/16 22:11:29;;;;;;;;;;;;;;;;;;112162;1264;8360;-74